sensor_id;sensor_type;location;lat;lon;timestamp;P1;durP1;ratioP1;P2;durP2;ratioP2
47784;SDS011;35233;55.686;37.848;2023-09-19T00:02:16;16.70;;;13.57;;
47784;SDS011;35233;55.686;37.848;2023-09-19T00:04:43;16.13;;;13.35;;
47784;SDS011;35233;55.686;37.848;2023-09-19T00:07:09;15.43;;;12.50;;
47784;SDS011;35233;55.686;37.848;2023-09-19T00:09:35;18.88;;;13.88;;
47784;SDS011;35233;55.686;37.848;2023-09-19T00:12:04;17.02;;;12.63;;
47784;SDS011;35233;55.686;37.848;2023-09-19T00:14:30;17.92;;;13.20;;
47784;SDS011;35233;55.686;37.848;2023-09-19T00:16:59;16.33;;;13.00;;
47784;SDS011;35233;55.686;37.848;2023-09-19T00:19:25;14.25;;;12.60;;
47784;SDS011;35233;55.686;37.848;2023-09-19T00:21:51;14.77;;;12.27;;
47784;SDS011;35233;55.686;37.848;2023-09-19T00:24:18;17.90;;;13.80;;
47784;SDS011;35233;55.686;37.848;2023-09-19T00:26:43;15.25;;;12.18;;
47784;SDS011;35233;55.686;37.848;2023-09-19T00:29:12;15.13;;;12.77;;
47784;SDS011;35233;55.686;37.848;2023-09-19T00:31:43;15.48;;;13.00;;
47784;SDS011;35233;55.686;37.848;2023-09-19T00:34:09;14.43;;;11.60;;
47784;SDS011;35233;55.686;37.848;2023-09-19T00:36:36;14.63;;;11.88;;
47784;SDS011;35233;55.686;37.848;2023-09-19T00:39:04;15.00;;;12.23;;
47784;SDS011;35233;55.686;37.848;2023-09-19T00:41:33;14.60;;;11.95;;
47784;SDS011;35233;55.686;37.848;2023-09-19T00:44:01;13.75;;;11.90;;
47784;SDS011;35233;55.686;37.848;2023-09-19T00:46:27;15.35;;;12.13;;
47784;SDS011;35233;55.686;37.848;2023-09-19T00:48:53;13.15;;;10.88;;
47784;SDS011;35233;55.686;37.848;2023-09-19T00:51:20;13.40;;;11.45;;
47784;SDS011;35233;55.686;37.848;2023-09-19T00:53:46;14.80;;;11.50;;
47784;SDS011;35233;55.686;37.848;2023-09-19T00:56:12;14.95;;;11.13;;
47784;SDS011;35233;55.686;37.848;2023-09-19T00:58:39;12.88;;;10.95;;
47784;SDS011;35233;55.686;37.848;2023-09-19T01:01:05;16.35;;;11.68;;
47784;SDS011;35233;55.686;37.848;2023-09-19T01:03:36;13.40;;;10.30;;
47784;SDS011;35233;55.686;37.848;2023-09-19T01:06:02;12.65;;;10.60;;
47784;SDS011;35233;55.686;37.848;2023-09-19T01:08:28;13.43;;;10.85;;
47784;SDS011;35233;55.686;37.848;2023-09-19T01:11:37;12.75;;;10.00;;
47784;SDS011;35233;55.686;37.848;2023-09-19T01:14:03;12.60;;;9.98;;
47784;SDS011;35233;55.686;37.848;2023-09-19T01:22:00;13.30;;;10.32;;
47784;SDS011;35233;55.686;37.848;2023-09-19T01:30:19;11.98;;;9.77;;
47784;SDS011;35233;55.686;37.848;2023-09-19T01:32:50;12.30;;;9.98;;
47784;SDS011;35233;55.686;37.848;2023-09-19T01:35:17;12.68;;;9.68;;
47784;SDS011;35233;55.686;37.848;2023-09-19T01:37:43;10.38;;;9.23;;
47784;SDS011;35233;55.686;37.848;2023-09-19T01:40:10;10.65;;;8.73;;
47784;SDS011;35233;55.686;37.848;2023-09-19T01:42:57;11.88;;;9.43;;
47784;SDS011;35233;55.686;37.848;2023-09-19T01:45:33;10.57;;;8.63;;
47784;SDS011;35233;55.686;37.848;2023-09-19T01:48:10;9.38;;;8.23;;
47784;SDS011;35233;55.686;37.848;2023-09-19T01:53:23;9.05;;;8.10;;
47784;SDS011;35233;55.686;37.848;2023-09-19T01:55:55;10.38;;;8.68;;
47784;SDS011;35233;55.686;37.848;2023-09-19T02:00:50;11.38;;;9.18;;
47784;SDS011;35233;55.686;37.848;2023-09-19T02:03:18;9.90;;;8.30;;
47784;SDS011;35233;55.686;37.848;2023-09-19T02:05:50;9.82;;;7.88;;
47784;SDS011;35233;55.686;37.848;2023-09-19T02:08:18;9.30;;;7.93;;
47784;SDS011;35233;55.686;37.848;2023-09-19T02:10:45;9.38;;;8.02;;
47784;SDS011;35233;55.686;37.848;2023-09-19T02:13:17;10.35;;;7.38;;
47784;SDS011;35233;55.686;37.848;2023-09-19T02:15:44;8.30;;;6.93;;
47784;SDS011;35233;55.686;37.848;2023-09-19T02:18:10;10.95;;;8.10;;
47784;SDS011;35233;55.686;37.848;2023-09-19T02:20:37;11.15;;;8.20;;
47784;SDS011;35233;55.686;37.848;2023-09-19T02:23:02;9.05;;;7.28;;
47784;SDS011;35233;55.686;37.848;2023-09-19T02:25:28;10.35;;;8.10;;
47784;SDS011;35233;55.686;37.848;2023-09-19T02:27:54;8.48;;;7.35;;
47784;SDS011;35233;55.686;37.848;2023-09-19T02:30:23;9.25;;;7.57;;
47784;SDS011;35233;55.686;37.848;2023-09-19T02:32:52;9.60;;;7.72;;
47784;SDS011;35233;55.686;37.848;2023-09-19T02:35:17;9.30;;;7.75;;
47784;SDS011;35233;55.686;37.848;2023-09-19T02:37:46;9.45;;;7.28;;
47784;SDS011;35233;55.686;37.848;2023-09-19T02:40:12;9.07;;;7.18;;
47784;SDS011;35233;55.686;37.848;2023-09-19T02:42:44;9.25;;;7.47;;
47784;SDS011;35233;55.686;37.848;2023-09-19T02:45:12;8.82;;;7.28;;
47784;SDS011;35233;55.686;37.848;2023-09-19T02:47:39;9.70;;;7.95;;
47784;SDS011;35233;55.686;37.848;2023-09-19T02:50:05;9.50;;;7.45;;
47784;SDS011;35233;55.686;37.848;2023-09-19T02:52:31;9.32;;;7.70;;
47784;SDS011;35233;55.686;37.848;2023-09-19T02:54:56;9.13;;;7.70;;
47784;SDS011;35233;55.686;37.848;2023-09-19T02:57:22;10.18;;;7.43;;
47784;SDS011;35233;55.686;37.848;2023-09-19T02:59:49;8.60;;;7.18;;
47784;SDS011;35233;55.686;37.848;2023-09-19T03:02:15;10.75;;;7.10;;
47784;SDS011;35233;55.686;37.848;2023-09-19T03:04:41;10.05;;;8.23;;
47784;SDS011;35233;55.686;37.848;2023-09-19T03:07:06;8.60;;;6.82;;
47784;SDS011;35233;55.686;37.848;2023-09-19T03:09:32;9.10;;;7.20;;
47784;SDS011;35233;55.686;37.848;2023-09-19T03:11:57;9.65;;;6.88;;
47784;SDS011;35233;55.686;37.848;2023-09-19T03:14:24;7.82;;;6.70;;
47784;SDS011;35233;55.686;37.848;2023-09-19T03:16:50;9.40;;;6.75;;
47784;SDS011;35233;55.686;37.848;2023-09-19T03:19:17;8.05;;;6.72;;
47784;SDS011;35233;55.686;37.848;2023-09-19T03:21:43;8.23;;;6.82;;
47784;SDS011;35233;55.686;37.848;2023-09-19T03:24:08;7.88;;;6.85;;
47784;SDS011;35233;55.686;37.848;2023-09-19T03:26:34;8.23;;;6.70;;
47784;SDS011;35233;55.686;37.848;2023-09-19T03:29:00;7.55;;;6.57;;
47784;SDS011;35233;55.686;37.848;2023-09-19T03:31:31;8.02;;;6.55;;
47784;SDS011;35233;55.686;37.848;2023-09-19T03:33:56;8.07;;;6.57;;
47784;SDS011;35233;55.686;37.848;2023-09-19T03:36:22;8.57;;;6.68;;
47784;SDS011;35233;55.686;37.848;2023-09-19T03:38:48;8.55;;;6.85;;
47784;SDS011;35233;55.686;37.848;2023-09-19T03:41:13;7.70;;;6.35;;
47784;SDS011;35233;55.686;37.848;2023-09-19T03:43:41;7.47;;;6.38;;
47784;SDS011;35233;55.686;37.848;2023-09-19T03:46:07;9.02;;;6.28;;
47784;SDS011;35233;55.686;37.848;2023-09-19T03:48:33;7.85;;;6.60;;
47784;SDS011;35233;55.686;37.848;2023-09-19T03:50:58;7.47;;;6.18;;
47784;SDS011;35233;55.686;37.848;2023-09-19T03:53:24;7.57;;;6.35;;
47784;SDS011;35233;55.686;37.848;2023-09-19T03:55:49;11.40;;;7.07;;
47784;SDS011;35233;55.686;37.848;2023-09-19T03:58:15;7.40;;;6.20;;
47784;SDS011;35233;55.686;37.848;2023-09-19T04:00:40;8.18;;;6.63;;
47784;SDS011;35233;55.686;37.848;2023-09-19T04:03:06;8.32;;;6.65;;
47784;SDS011;35233;55.686;37.848;2023-09-19T04:05:32;7.97;;;6.30;;
47784;SDS011;35233;55.686;37.848;2023-09-19T04:07:58;8.27;;;6.20;;
47784;SDS011;35233;55.686;37.848;2023-09-19T04:10:24;8.32;;;6.72;;
47784;SDS011;35233;55.686;37.848;2023-09-19T04:12:50;7.82;;;6.32;;
47784;SDS011;35233;55.686;37.848;2023-09-19T04:15:19;7.20;;;5.82;;
47784;SDS011;35233;55.686;37.848;2023-09-19T04:17:47;7.53;;;5.85;;
47784;SDS011;35233;55.686;37.848;2023-09-19T04:20:13;7.18;;;5.50;;
47784;SDS011;35233;55.686;37.848;2023-09-19T04:22:38;9.70;;;6.20;;
47784;SDS011;35233;55.686;37.848;2023-09-19T04:25:04;7.80;;;5.88;;
47784;SDS011;35233;55.686;37.848;2023-09-19T04:27:32;7.18;;;6.10;;
47784;SDS011;35233;55.686;37.848;2023-09-19T04:29:57;7.43;;;5.95;;
47784;SDS011;35233;55.686;37.848;2023-09-19T04:32:24;7.75;;;5.82;;
47784;SDS011;35233;55.686;37.848;2023-09-19T04:34:57;7.40;;;5.80;;
47784;SDS011;35233;55.686;37.848;2023-09-19T04:37:25;8.05;;;6.80;;
47784;SDS011;35233;55.686;37.848;2023-09-19T04:39:51;10.93;;;7.90;;
47784;SDS011;35233;55.686;37.848;2023-09-19T04:42:16;10.77;;;8.50;;
47784;SDS011;35233;55.686;37.848;2023-09-19T04:44:42;11.77;;;9.10;;
47784;SDS011;35233;55.686;37.848;2023-09-19T04:47:08;14.57;;;9.95;;
47784;SDS011;35233;55.686;37.848;2023-09-19T04:49:33;14.20;;;9.70;;
47784;SDS011;35233;55.686;37.848;2023-09-19T04:52:00;12.45;;;9.05;;
47784;SDS011;35233;55.686;37.848;2023-09-19T04:54:25;12.70;;;9.15;;
47784;SDS011;35233;55.686;37.848;2023-09-19T04:56:52;11.10;;;8.07;;
47784;SDS011;35233;55.686;37.848;2023-09-19T04:59:17;13.13;;;8.80;;
47784;SDS011;35233;55.686;37.848;2023-09-19T05:01:43;12.82;;;8.35;;
47784;SDS011;35233;55.686;37.848;2023-09-19T05:04:09;14.35;;;8.30;;
47784;SDS011;35233;55.686;37.848;2023-09-19T05:06:34;12.25;;;8.48;;
47784;SDS011;35233;55.686;37.848;2023-09-19T05:09:00;15.55;;;7.95;;
47784;SDS011;35233;55.686;37.848;2023-09-19T05:11:26;14.60;;;8.30;;
47784;SDS011;35233;55.686;37.848;2023-09-19T05:13:52;13.15;;;7.70;;
47784;SDS011;35233;55.686;37.848;2023-09-19T05:16:18;14.27;;;7.70;;
47784;SDS011;35233;55.686;37.848;2023-09-19T05:18:44;10.13;;;7.50;;
47784;SDS011;35233;55.686;37.848;2023-09-19T05:21:09;16.98;;;9.70;;
47784;SDS011;35233;55.686;37.848;2023-09-19T05:23:35;28.45;;;11.70;;
47784;SDS011;35233;55.686;37.848;2023-09-19T05:26:02;27.20;;;11.65;;
47784;SDS011;35233;55.686;37.848;2023-09-19T05:28:29;19.92;;;10.13;;
47784;SDS011;35233;55.686;37.848;2023-09-19T05:30:54;18.75;;;9.82;;
47784;SDS011;35233;55.686;37.848;2023-09-19T05:33:20;14.85;;;8.82;;
47784;SDS011;35233;55.686;37.848;2023-09-19T05:35:49;21.35;;;10.55;;
47784;SDS011;35233;55.686;37.848;2023-09-19T05:38:14;16.42;;;10.63;;
47784;SDS011;35233;55.686;37.848;2023-09-19T05:40:40;18.08;;;9.60;;
47784;SDS011;35233;55.686;37.848;2023-09-19T05:43:07;16.73;;;10.35;;
47784;SDS011;35233;55.686;37.848;2023-09-19T05:45:33;17.67;;;10.70;;
47784;SDS011;35233;55.686;37.848;2023-09-19T05:48:06;16.65;;;9.63;;
47784;SDS011;35233;55.686;37.848;2023-09-19T05:50:33;18.23;;;10.65;;
47784;SDS011;35233;55.686;37.848;2023-09-19T05:52:59;15.57;;;11.07;;
47784;SDS011;35233;55.686;37.848;2023-09-19T05:55:24;21.13;;;12.32;;
47784;SDS011;35233;55.686;37.848;2023-09-19T05:57:50;19.20;;;12.70;;
47784;SDS011;35233;55.686;37.848;2023-09-19T06:00:20;18.77;;;11.85;;
47784;SDS011;35233;55.686;37.848;2023-09-19T06:02:52;20.70;;;11.98;;
47784;SDS011;35233;55.686;37.848;2023-09-19T06:05:18;17.77;;;11.85;;
47784;SDS011;35233;55.686;37.848;2023-09-19T06:07:45;15.30;;;11.05;;
47784;SDS011;35233;55.686;37.848;2023-09-19T06:10:10;14.65;;;10.32;;
47784;SDS011;35233;55.686;37.848;2023-09-19T06:12:39;13.93;;;9.90;;
47784;SDS011;35233;55.686;37.848;2023-09-19T06:15:06;17.27;;;11.88;;
47784;SDS011;35233;55.686;37.848;2023-09-19T06:17:34;16.77;;;11.18;;
47784;SDS011;35233;55.686;37.848;2023-09-19T06:20:04;20.63;;;12.07;;
47784;SDS011;35233;55.686;37.848;2023-09-19T06:22:38;17.20;;;12.70;;
47784;SDS011;35233;55.686;37.848;2023-09-19T06:25:04;18.45;;;13.13;;
47784;SDS011;35233;55.686;37.848;2023-09-19T06:27:30;17.83;;;12.20;;
47784;SDS011;35233;55.686;37.848;2023-09-19T06:29:55;18.02;;;12.57;;
47784;SDS011;35233;55.686;37.848;2023-09-19T06:32:30;18.58;;;12.88;;
47784;SDS011;35233;55.686;37.848;2023-09-19T06:34:56;18.40;;;13.20;;
47784;SDS011;35233;55.686;37.848;2023-09-19T06:37:23;19.20;;;13.40;;
47784;SDS011;35233;55.686;37.848;2023-09-19T06:39:49;21.13;;;14.43;;
47784;SDS011;35233;55.686;37.848;2023-09-19T06:42:15;18.83;;;14.02;;
47784;SDS011;35233;55.686;37.848;2023-09-19T06:44:42;22.55;;;14.02;;
47784;SDS011;35233;55.686;37.848;2023-09-19T06:47:08;20.60;;;13.27;;
47784;SDS011;35233;55.686;37.848;2023-09-19T06:49:35;18.90;;;13.55;;
47784;SDS011;35233;55.686;37.848;2023-09-19T06:52:01;16.67;;;12.10;;
47784;SDS011;35233;55.686;37.848;2023-09-19T06:54:27;17.35;;;12.43;;
47784;SDS011;35233;55.686;37.848;2023-09-19T06:56:59;18.13;;;13.48;;
47784;SDS011;35233;55.686;37.848;2023-09-19T06:59:25;21.02;;;13.77;;
47784;SDS011;35233;55.686;37.848;2023-09-19T07:01:50;23.02;;;14.75;;
47784;SDS011;35233;55.686;37.848;2023-09-19T07:04:16;21.83;;;14.63;;
47784;SDS011;35233;55.686;37.848;2023-09-19T07:06:44;21.45;;;14.25;;
47784;SDS011;35233;55.686;37.848;2023-09-19T07:09:11;21.42;;;14.40;;
47784;SDS011;35233;55.686;37.848;2023-09-19T07:11:37;21.23;;;14.68;;
47784;SDS011;35233;55.686;37.848;2023-09-19T07:14:03;19.60;;;14.02;;
47784;SDS011;35233;55.686;37.848;2023-09-19T07:16:30;18.50;;;13.55;;
47784;SDS011;35233;55.686;37.848;2023-09-19T07:18:56;20.60;;;14.70;;
47784;SDS011;35233;55.686;37.848;2023-09-19T07:21:22;20.80;;;16.05;;
47784;SDS011;35233;55.686;37.848;2023-09-19T07:23:49;22.00;;;16.10;;
47784;SDS011;35233;55.686;37.848;2023-09-19T07:26:15;24.58;;;16.95;;
47784;SDS011;35233;55.686;37.848;2023-09-19T07:28:41;22.83;;;16.83;;
47784;SDS011;35233;55.686;37.848;2023-09-19T07:31:06;23.80;;;17.67;;
47784;SDS011;35233;55.686;37.848;2023-09-19T07:33:35;24.48;;;18.23;;
47784;SDS011;35233;55.686;37.848;2023-09-19T07:36:01;24.55;;;17.63;;
47784;SDS011;35233;55.686;37.848;2023-09-19T07:38:27;22.98;;;17.63;;
47784;SDS011;35233;55.686;37.848;2023-09-19T07:40:53;22.20;;;16.45;;
47784;SDS011;35233;55.686;37.848;2023-09-19T07:43:18;24.50;;;17.33;;
47784;SDS011;35233;55.686;37.848;2023-09-19T07:45:44;21.65;;;15.75;;
47784;SDS011;35233;55.686;37.848;2023-09-19T07:48:10;23.38;;;16.13;;
47784;SDS011;35233;55.686;37.848;2023-09-19T07:50:40;23.50;;;16.70;;
47784;SDS011;35233;55.686;37.848;2023-09-19T07:53:08;25.52;;;16.98;;
47784;SDS011;35233;55.686;37.848;2023-09-19T07:55:34;25.75;;;18.05;;
47784;SDS011;35233;55.686;37.848;2023-09-19T07:57:59;25.27;;;17.58;;
47784;SDS011;35233;55.686;37.848;2023-09-19T08:00:25;24.73;;;18.83;;
47784;SDS011;35233;55.686;37.848;2023-09-19T08:02:51;27.63;;;19.95;;
47784;SDS011;35233;55.686;37.848;2023-09-19T08:05:20;25.67;;;19.05;;
47784;SDS011;35233;55.686;37.848;2023-09-19T08:07:45;24.00;;;18.23;;
47784;SDS011;35233;55.686;37.848;2023-09-19T08:10:15;26.42;;;18.63;;
47784;SDS011;35233;55.686;37.848;2023-09-19T08:12:41;26.02;;;19.63;;
47784;SDS011;35233;55.686;37.848;2023-09-19T08:15:15;26.23;;;19.40;;
47784;SDS011;35233;55.686;37.848;2023-09-19T08:17:47;25.88;;;19.48;;
47784;SDS011;35233;55.686;37.848;2023-09-19T08:20:13;25.30;;;18.77;;
47784;SDS011;35233;55.686;37.848;2023-09-19T08:22:47;26.73;;;19.20;;
47784;SDS011;35233;55.686;37.848;2023-09-19T08:25:16;25.65;;;17.55;;
47784;SDS011;35233;55.686;37.848;2023-09-19T08:27:45;22.80;;;17.20;;
47784;SDS011;35233;55.686;37.848;2023-09-19T08:30:13;19.13;;;15.57;;
47784;SDS011;35233;55.686;37.848;2023-09-19T08:32:56;24.15;;;16.98;;
47784;SDS011;35233;55.686;37.848;2023-09-19T08:35:23;26.27;;;16.33;;
47784;SDS011;35233;55.686;37.848;2023-09-19T08:37:49;24.33;;;16.35;;
47784;SDS011;35233;55.686;37.848;2023-09-19T08:40:16;20.98;;;15.90;;
47784;SDS011;35233;55.686;37.848;2023-09-19T08:45:19;25.98;;;16.35;;
47784;SDS011;35233;55.686;37.848;2023-09-19T08:51:03;19.90;;;14.80;;
47784;SDS011;35233;55.686;37.848;2023-09-19T08:53:41;21.27;;;14.75;;
47784;SDS011;35233;55.686;37.848;2023-09-19T08:56:13;20.05;;;14.40;;
47784;SDS011;35233;55.686;37.848;2023-09-19T08:58:59;23.77;;;14.80;;
47784;SDS011;35233;55.686;37.848;2023-09-19T09:03:53;20.90;;;16.17;;
47784;SDS011;35233;55.686;37.848;2023-09-19T09:06:21;23.27;;;16.60;;
47784;SDS011;35233;55.686;37.848;2023-09-19T09:08:48;21.70;;;16.40;;
47784;SDS011;35233;55.686;37.848;2023-09-19T09:11:15;23.00;;;16.48;;
47784;SDS011;35233;55.686;37.848;2023-09-19T09:13:45;21.10;;;15.43;;
47784;SDS011;35233;55.686;37.848;2023-09-19T09:16:11;21.08;;;15.48;;
47784;SDS011;35233;55.686;37.848;2023-09-19T09:18:38;22.90;;;15.55;;
47784;SDS011;35233;55.686;37.848;2023-09-19T09:21:05;20.35;;;15.55;;
47784;SDS011;35233;55.686;37.848;2023-09-19T09:23:31;19.58;;;14.27;;
47784;SDS011;35233;55.686;37.848;2023-09-19T09:25:58;18.00;;;13.80;;
47784;SDS011;35233;55.686;37.848;2023-09-19T09:28:28;18.08;;;14.27;;
47784;SDS011;35233;55.686;37.848;2023-09-19T09:30:56;21.52;;;14.68;;
47784;SDS011;35233;55.686;37.848;2023-09-19T09:33:23;20.42;;;14.82;;
47784;SDS011;35233;55.686;37.848;2023-09-19T09:38:25;17.58;;;13.02;;
47784;SDS011;35233;55.686;37.848;2023-09-19T09:40:57;18.15;;;13.63;;
47784;SDS011;35233;55.686;37.848;2023-09-19T09:43:35;18.95;;;13.27;;
47784;SDS011;35233;55.686;37.848;2023-09-19T09:46:14;20.98;;;14.38;;
47784;SDS011;35233;55.686;37.848;2023-09-19T09:48:59;21.23;;;14.13;;
47784;SDS011;35233;55.686;37.848;2023-09-19T09:51:58;17.30;;;13.68;;
47784;SDS011;35233;55.686;37.848;2023-09-19T09:54:32;21.40;;;15.82;;
47784;SDS011;35233;55.686;37.848;2023-09-19T09:57:03;22.15;;;17.63;;
47784;SDS011;35233;55.686;37.848;2023-09-19T09:59:54;22.60;;;16.85;;
47784;SDS011;35233;55.686;37.848;2023-09-19T10:02:41;23.00;;;17.73;;
47784;SDS011;35233;55.686;37.848;2023-09-19T10:07:52;21.02;;;17.15;;
47784;SDS011;35233;55.686;37.848;2023-09-19T10:10:30;21.42;;;17.33;;
47784;SDS011;35233;55.686;37.848;2023-09-19T10:13:09;22.13;;;16.67;;
47784;SDS011;35233;55.686;37.848;2023-09-19T10:15:41;21.20;;;16.83;;
47784;SDS011;35233;55.686;37.848;2023-09-19T10:18:14;22.90;;;18.35;;
47784;SDS011;35233;55.686;37.848;2023-09-19T10:20:44;23.83;;;19.27;;
47784;SDS011;35233;55.686;37.848;2023-09-19T10:23:11;25.75;;;21.35;;
47784;SDS011;35233;55.686;37.848;2023-09-19T10:25:41;27.23;;;21.27;;
47784;SDS011;35233;55.686;37.848;2023-09-19T10:28:14;26.35;;;21.65;;
47784;SDS011;35233;55.686;37.848;2023-09-19T10:30:50;28.17;;;22.45;;
47784;SDS011;35233;55.686;37.848;2023-09-19T10:33:18;27.27;;;22.40;;
47784;SDS011;35233;55.686;37.848;2023-09-19T10:35:49;29.80;;;23.35;;
47784;SDS011;35233;55.686;37.848;2023-09-19T10:38:25;27.85;;;24.17;;
47784;SDS011;35233;55.686;37.848;2023-09-19T10:40:54;29.83;;;25.20;;
47784;SDS011;35233;55.686;37.848;2023-09-19T10:43:33;27.50;;;24.40;;
47784;SDS011;35233;55.686;37.848;2023-09-19T10:46:06;28.08;;;23.33;;
47784;SDS011;35233;55.686;37.848;2023-09-19T10:48:36;30.88;;;25.45;;
47784;SDS011;35233;55.686;37.848;2023-09-19T10:53:47;27.77;;;24.58;;
47784;SDS011;35233;55.686;37.848;2023-09-19T10:56:26;28.63;;;23.70;;
47784;SDS011;35233;55.686;37.848;2023-09-19T10:59:11;28.23;;;22.80;;
47784;SDS011;35233;55.686;37.848;2023-09-19T11:07:02;28.33;;;22.35;;
47784;SDS011;35233;55.686;37.848;2023-09-19T11:09:43;28.42;;;23.02;;
47784;SDS011;35233;55.686;37.848;2023-09-19T11:14:57;29.52;;;24.90;;
47784;SDS011;35233;55.686;37.848;2023-09-19T11:30:46;47.55;;;36.90;;
47784;SDS011;35233;55.686;37.848;2023-09-19T11:36:07;44.20;;;34.65;;
47784;SDS011;35233;55.686;37.848;2023-09-19T11:43:52;40.22;;;31.70;;
47784;SDS011;35233;55.686;37.848;2023-09-19T11:46:24;37.30;;;30.05;;
47784;SDS011;35233;55.686;37.848;2023-09-19T11:48:50;39.08;;;29.50;;
47784;SDS011;35233;55.686;37.848;2023-09-19T11:51:18;35.22;;;28.10;;
47784;SDS011;35233;55.686;37.848;2023-09-19T11:53:57;39.08;;;30.45;;
47784;SDS011;35233;55.686;37.848;2023-09-19T11:56:25;36.17;;;27.90;;
47784;SDS011;35233;55.686;37.848;2023-09-19T11:58:57;32.60;;;27.52;;
47784;SDS011;35233;55.686;37.848;2023-09-19T12:01:28;33.22;;;27.30;;
47784;SDS011;35233;55.686;37.848;2023-09-19T12:03:56;34.05;;;27.90;;
47784;SDS011;35233;55.686;37.848;2023-09-19T12:06:27;34.85;;;27.67;;
47784;SDS011;35233;55.686;37.848;2023-09-19T12:09:13;35.33;;;27.63;;
47784;SDS011;35233;55.686;37.848;2023-09-19T12:11:42;33.53;;;25.50;;
47784;SDS011;35233;55.686;37.848;2023-09-19T12:14:11;33.55;;;24.88;;
47784;SDS011;35233;55.686;37.848;2023-09-19T12:16:37;30.27;;;25.48;;
47784;SDS011;35233;55.686;37.848;2023-09-19T12:19:22;31.65;;;25.45;;
47784;SDS011;35233;55.686;37.848;2023-09-19T12:21:59;30.48;;;23.70;;
47784;SDS011;35233;55.686;37.848;2023-09-19T12:24:29;29.25;;;24.65;;
47784;SDS011;35233;55.686;37.848;2023-09-19T12:27:05;30.52;;;24.42;;
47784;SDS011;35233;55.686;37.848;2023-09-19T12:29:52;28.50;;;24.30;;
47784;SDS011;35233;55.686;37.848;2023-09-19T12:32:36;29.13;;;24.00;;
47784;SDS011;35233;55.686;37.848;2023-09-19T12:35:05;29.30;;;23.30;;
47784;SDS011;35233;55.686;37.848;2023-09-19T12:37:45;31.35;;;24.45;;
47784;SDS011;35233;55.686;37.848;2023-09-19T12:40:18;27.98;;;23.15;;
47784;SDS011;35233;55.686;37.848;2023-09-19T12:42:53;26.67;;;23.67;;
47784;SDS011;35233;55.686;37.848;2023-09-19T12:45:31;30.25;;;24.40;;
47784;SDS011;35233;55.686;37.848;2023-09-19T12:48:19;27.50;;;23.85;;
47784;SDS011;35233;55.686;37.848;2023-09-19T12:51:01;28.65;;;23.48;;
47784;SDS011;35233;55.686;37.848;2023-09-19T12:56:09;27.58;;;22.90;;
47784;SDS011;35233;55.686;37.848;2023-09-19T12:58:57;26.52;;;23.23;;
47784;SDS011;35233;55.686;37.848;2023-09-19T13:01:28;26.85;;;22.45;;
47784;SDS011;35233;55.686;37.848;2023-09-19T13:04:10;29.17;;;23.23;;
47784;SDS011;35233;55.686;37.848;2023-09-19T13:06:43;30.77;;;23.35;;
47784;SDS011;35233;55.686;37.848;2023-09-19T13:09:10;28.88;;;22.30;;
47784;SDS011;35233;55.686;37.848;2023-09-19T13:11:36;27.42;;;23.02;;
47784;SDS011;35233;55.686;37.848;2023-09-19T13:16:55;28.30;;;23.88;;
47784;SDS011;35233;55.686;37.848;2023-09-19T13:19:39;27.30;;;23.10;;
47784;SDS011;35233;55.686;37.848;2023-09-19T13:25:08;26.90;;;22.67;;
47784;SDS011;35233;55.686;37.848;2023-09-19T13:27:47;25.60;;;22.02;;
47784;SDS011;35233;55.686;37.848;2023-09-19T13:30:17;26.70;;;22.58;;
47784;SDS011;35233;55.686;37.848;2023-09-19T13:32:43;24.73;;;21.45;;
47784;SDS011;35233;55.686;37.848;2023-09-19T13:35:12;26.50;;;22.02;;
47784;SDS011;35233;55.686;37.848;2023-09-19T13:37:39;26.50;;;21.98;;
47784;SDS011;35233;55.686;37.848;2023-09-19T13:40:13;23.65;;;20.58;;
47784;SDS011;35233;55.686;37.848;2023-09-19T13:42:41;24.02;;;20.58;;
47784;SDS011;35233;55.686;37.848;2023-09-19T13:45:08;23.77;;;21.08;;
47784;SDS011;35233;55.686;37.848;2023-09-19T13:47:38;23.73;;;20.20;;
47784;SDS011;35233;55.686;37.848;2023-09-19T13:50:04;28.83;;;20.38;;
47784;SDS011;35233;55.686;37.848;2023-09-19T13:52:30;22.25;;;19.00;;
47784;SDS011;35233;55.686;37.848;2023-09-19T13:54:57;23.67;;;20.05;;
47784;SDS011;35233;55.686;37.848;2023-09-19T13:57:23;24.42;;;19.90;;
47784;SDS011;35233;55.686;37.848;2023-09-19T13:59:49;26.67;;;19.92;;
47784;SDS011;35233;55.686;37.848;2023-09-19T14:02:16;23.83;;;19.95;;
47784;SDS011;35233;55.686;37.848;2023-09-19T14:04:43;26.58;;;19.65;;
47784;SDS011;35233;55.686;37.848;2023-09-19T14:07:09;24.50;;;18.88;;
47784;SDS011;35233;55.686;37.848;2023-09-19T14:09:36;22.25;;;19.35;;
47784;SDS011;35233;55.686;37.848;2023-09-19T14:12:02;23.17;;;18.73;;
47784;SDS011;35233;55.686;37.848;2023-09-19T14:14:28;21.20;;;18.77;;
47784;SDS011;35233;55.686;37.848;2023-09-19T14:16:53;21.13;;;18.83;;
47784;SDS011;35233;55.686;37.848;2023-09-19T14:19:20;21.58;;;18.85;;
47784;SDS011;35233;55.686;37.848;2023-09-19T14:21:45;21.85;;;19.10;;
47784;SDS011;35233;55.686;37.848;2023-09-19T14:24:15;19.98;;;17.80;;
47784;SDS011;35233;55.686;37.848;2023-09-19T14:26:41;23.63;;;18.77;;
47784;SDS011;35233;55.686;37.848;2023-09-19T14:29:07;21.35;;;18.25;;
47784;SDS011;35233;55.686;37.848;2023-09-19T14:31:33;20.20;;;17.88;;
47784;SDS011;35233;55.686;37.848;2023-09-19T14:34:01;21.10;;;18.52;;
47784;SDS011;35233;55.686;37.848;2023-09-19T14:36:28;21.25;;;17.40;;
47784;SDS011;35233;55.686;37.848;2023-09-19T14:38:54;22.88;;;17.60;;
47784;SDS011;35233;55.686;37.848;2023-09-19T14:41:22;22.05;;;17.42;;
47784;SDS011;35233;55.686;37.848;2023-09-19T14:43:48;20.50;;;16.80;;
47784;SDS011;35233;55.686;37.848;2023-09-19T14:46:14;21.88;;;16.58;;
47784;SDS011;35233;55.686;37.848;2023-09-19T14:48:40;19.23;;;16.17;;
47784;SDS011;35233;55.686;37.848;2023-09-19T14:51:06;20.83;;;16.70;;
47784;SDS011;35233;55.686;37.848;2023-09-19T14:53:37;32.28;;;18.23;;
47784;SDS011;35233;55.686;37.848;2023-09-19T14:56:03;21.73;;;16.70;;
47784;SDS011;35233;55.686;37.848;2023-09-19T14:58:33;24.50;;;16.73;;
47784;SDS011;35233;55.686;37.848;2023-09-19T15:01:05;24.15;;;16.70;;
47784;SDS011;35233;55.686;37.848;2023-09-19T15:03:33;21.83;;;15.30;;
47784;SDS011;35233;55.686;37.848;2023-09-19T15:06:02;22.75;;;16.65;;
47784;SDS011;35233;55.686;37.848;2023-09-19T15:08:34;21.87;;;15.50;;
47784;SDS011;35233;55.686;37.848;2023-09-19T15:11:01;18.90;;;15.93;;
47784;SDS011;35233;55.686;37.848;2023-09-19T15:13:30;22.05;;;16.00;;
47784;SDS011;35233;55.686;37.848;2023-09-19T15:16:03;24.35;;;16.42;;
47784;SDS011;35233;55.686;37.848;2023-09-19T15:18:30;18.58;;;15.30;;
47784;SDS011;35233;55.686;37.848;2023-09-19T15:21:05;19.75;;;15.40;;
47784;SDS011;35233;55.686;37.848;2023-09-19T15:23:35;21.27;;;16.33;;
47784;SDS011;35233;55.686;37.848;2023-09-19T15:26:02;20.60;;;16.48;;
47784;SDS011;35233;55.686;37.848;2023-09-19T15:28:28;19.27;;;15.65;;
47784;SDS011;35233;55.686;37.848;2023-09-19T15:30:59;19.27;;;15.77;;
47784;SDS011;35233;55.686;37.848;2023-09-19T15:33:32;21.27;;;15.85;;
47784;SDS011;35233;55.686;37.848;2023-09-19T15:36:01;18.17;;;15.60;;